sensor_id;sensor_type;location;lat;lon;timestamp;temperature;humidity
39865;DHT22;25538;48.392;9.976;2022-10-16T00:01:08;14.50;99.90
39865;DHT22;25538;48.392;9.976;2022-10-16T00:03:34;14.50;99.90
39865;DHT22;25538;48.392;9.976;2022-10-16T00:06:01;14.50;99.90
39865;DHT22;25538;48.392;9.976;2022-10-16T00:08:27;14.60;99.90
39865;DHT22;25538;48.392;9.976;2022-10-16T00:11:02;14.60;99.90
39865;DHT22;25538;48.392;9.976;2022-10-16T00:13:29;14.60;99.90
39865;DHT22;25538;48.392;9.976;2022-10-16T00:15:56;14.60;99.90
39865;DHT22;25538;48.392;9.976;2022-10-16T00:18:23;14.60;99.90
39865;DHT22;25538;48.392;9.976;2022-10-16T00:20:49;14.60;99.90
39865;DHT22;25538;48.392;9.976;2022-10-16T00:23:15;14.60;99.90
39865;DHT22;25538;48.392;9.976;2022-10-16T00:25:41;14.60;99.90
39865;DHT22;25538;48.392;9.976;2022-10-16T00:28:07;14.60;99.90
39865;DHT22;25538;48.392;9.976;2022-10-16T00:30:33;14.50;99.90
39865;DHT22;25538;48.392;9.976;2022-10-16T00:32:58;14.50;99.90
39865;DHT22;25538;48.392;9.976;2022-10-16T00:35:24;14.50;99.90
39865;DHT22;25538;48.392;9.976;2022-10-16T00:37:50;14.40;99.90
39865;DHT22;25538;48.392;9.976;2022-10-16T00:40:16;14.40;99.90
39865;DHT22;25538;48.392;9.976;2022-10-16T00:42:42;14.40;99.90
39865;DHT22;25538;48.392;9.976;2022-10-16T00:45:09;14.30;99.90
39865;DHT22;25538;48.392;9.976;2022-10-16T00:47:43;14.30;99.90
39865;DHT22;25538;48.392;9.976;2022-10-16T00:50:18;14.30;99.90
39865;DHT22;25538;48.392;9.976;2022-10-16T00:52:48;14.20;99.90
39865;DHT22;25538;48.392;9.976;2022-10-16T00:55:16;14.20;99.90
39865;DHT22;25538;48.392;9.976;2022-10-16T00:57:43;14.20;99.90
39865;DHT22;25538;48.392;9.976;2022-10-16T01:00:17;14.10;99.90
39865;DHT22;25538;48.392;9.976;2022-10-16T01:02:43;14.10;99.90
39865;DHT22;25538;48.392;9.976;2022-10-16T01:05:09;14.10;99.90
39865;DHT22;25538;48.392;9.976;2022-10-16T01:07:56;14.10;99.90
39865;DHT22;25538;48.392;9.976;2022-10-16T01:10:39;14.00;99.90
39865;DHT22;25538;48.392;9.976;2022-10-16T01:13:07;14.00;99.90
39865;DHT22;25538;48.392;9.976;2022-10-16T01:15:47;14.00;99.90
39865;DHT22;25538;48.392;9.976;2022-10-16T01:18:41;14.00;99.90
39865;DHT22;25538;48.392;9.976;2022-10-16T01:21:16;14.00;99.90
39865;DHT22;25538;48.392;9.976;2022-10-16T01:23:57;14.00;99.90
39865;DHT22;25538;48.392;9.976;2022-10-16T01:26:32;14.00;99.90
39865;DHT22;25538;48.392;9.976;2022-10-16T01:34:53;14.00;99.90
39865;DHT22;25538;48.392;9.976;2022-10-16T01:39:59;14.00;99.90
39865;DHT22;25538;48.392;9.976;2022-10-16T01:42:32;14.00;99.90
39865;DHT22;25538;48.392;9.976;2022-10-16T01:44:59;14.00;99.90
39865;DHT22;25538;48.392;9.976;2022-10-16T01:47:27;14.10;99.90
39865;DHT22;25538;48.392;9.976;2022-10-16T01:49:58;14.10;99.90
39865;DHT22;25538;48.392;9.976;2022-10-16T01:52:26;14.10;99.90
39865;DHT22;25538;48.392;9.976;2022-10-16T01:54:55;14.10;99.90
39865;DHT22;25538;48.392;9.976;2022-10-16T01:57:24;14.20;99.90
39865;DHT22;25538;48.392;9.976;2022-10-16T01:59:54;14.20;99.90
39865;DHT22;25538;48.392;9.976;2022-10-16T02:02:22;14.10;99.90
39865;DHT22;25538;48.392;9.976;2022-10-16T02:05:12;14.10;99.90
39865;DHT22;25538;48.392;9.976;2022-10-16T02:07:41;14.00;99.90
39865;DHT22;25538;48.392;9.976;2022-10-16T02:10:08;14.00;99.90
39865;DHT22;25538;48.392;9.976;2022-10-16T02:12:37;14.10;99.90
39865;DHT22;25538;48.392;9.976;2022-10-16T02:15:06;14.10;99.90
39865;DHT22;25538;48.392;9.976;2022-10-16T02:17:32;14.10;99.90
39865;DHT22;25538;48.392;9.976;2022-10-16T02:19:59;14.10;99.90
39865;DHT22;25538;48.392;9.976;2022-10-16T02:22:45;14.10;99.90
39865;DHT22;25538;48.392;9.976;2022-10-16T02:25:17;14.10;99.90
39865;DHT22;25538;48.392;9.976;2022-10-16T02:30:19;14.10;99.90
39865;DHT22;25538;48.392;9.976;2022-10-16T02:32:47;14.10;99.90
39865;DHT22;25538;48.392;9.976;2022-10-16T02:35:17;14.10;99.90
39865;DHT22;25538;48.392;9.976;2022-10-16T02:37:44;14.10;99.90
39865;DHT22;25538;48.392;9.976;2022-10-16T02:40:12;14.10;99.90
39865;DHT22;25538;48.392;9.976;2022-10-16T02:42:39;14.10;99.90
39865;DHT22;25538;48.392;9.976;2022-10-16T02:45:06;14.10;99.90
39865;DHT22;25538;48.392;9.976;2022-10-16T02:47:33;14.10;99.90
39865;DHT22;25538;48.392;9.976;2022-10-16T02:49:59;14.10;99.90
39865;DHT22;25538;48.392;9.976;2022-10-16T02:52:25;14.00;99.90
39865;DHT22;25538;48.392;9.976;2022-10-16T02:54:51;14.00;99.90
39865;DHT22;25538;48.392;9.976;2022-10-16T02:57:17;14.00;99.90
39865;DHT22;25538;48.392;9.976;2022-10-16T02:59:44;14.00;99.90
39865;DHT22;25538;48.392;9.976;2022-10-16T03:02:11;14.00;99.90
39865;DHT22;25538;48.392;9.976;2022-10-16T03:04:37;14.00;99.90
39865;DHT22;25538;48.392;9.976;2022-10-16T03:07:03;14.00;99.90
39865;DHT22;25538;48.392;9.976;2022-10-16T03:09:29;14.00;99.90
39865;DHT22;25538;48.392;9.976;2022-10-16T03:11:55;14.00;99.90
39865;DHT22;25538;48.392;9.976;2022-10-16T03:14:21;14.00;99.90
39865;DHT22;25538;48.392;9.976;2022-10-16T03:16:47;14.10;99.90
39865;DHT22;25538;48.392;9.976;2022-10-16T03:19:13;14.00;99.90
39865;DHT22;25538;48.392;9.976;2022-10-16T03:21:39;13.90;99.90
39865;DHT22;25538;48.392;9.976;2022-10-16T03:24:05;13.90;99.90
39865;DHT22;25538;48.392;9.976;2022-10-16T03:26:31;13.90;99.90
39865;DHT22;25538;48.392;9.976;2022-10-16T03:28:57;13.80;99.90
39865;DHT22;25538;48.392;9.976;2022-10-16T03:31:22;13.80;99.90
39865;DHT22;25538;48.392;9.976;2022-10-16T03:33:48;13.80;99.90
39865;DHT22;25538;48.392;9.976;2022-10-16T03:36:14;13.80;99.90
39865;DHT22;25538;48.392;9.976;2022-10-16T03:38:40;13.80;99.90
39865;DHT22;25538;48.392;9.976;2022-10-16T03:41:06;13.80;99.90
39865;DHT22;25538;48.392;9.976;2022-10-16T03:43:33;13.80;99.90
39865;DHT22;25538;48.392;9.976;2022-10-16T03:45:59;13.80;99.90
39865;DHT22;25538;48.392;9.976;2022-10-16T03:48:25;13.80;99.90
39865;DHT22;25538;48.392;9.976;2022-10-16T03:50:51;13.80;99.90
39865;DHT22;25538;48.392;9.976;2022-10-16T03:53:17;13.80;99.90
39865;DHT22;25538;48.392;9.976;2022-10-16T03:55:44;13.80;99.90
39865;DHT22;25538;48.392;9.976;2022-10-16T03:58:10;13.80;99.90
39865;DHT22;25538;48.392;9.976;2022-10-16T04:00:43;13.80;99.90
39865;DHT22;25538;48.392;9.976;2022-10-16T04:03:10;13.80;99.90
39865;DHT22;25538;48.392;9.976;2022-10-16T04:05:36;13.80;99.90
39865;DHT22;25538;48.392;9.976;2022-10-16T04:08:02;13.80;99.90
39865;DHT22;25538;48.392;9.976;2022-10-16T04:10:28;13.80;99.90
39865;DHT22;25538;48.392;9.976;2022-10-16T04:12:54;13.80;99.90
39865;DHT22;25538;48.392;9.976;2022-10-16T04:15:25;13.80;99.90
39865;DHT22;25538;48.392;9.976;2022-10-16T04:17:51;13.70;99.90
39865;DHT22;25538;48.392;9.976;2022-10-16T04:20:18;13.70;99.90
39865;DHT22;25538;48.392;9.976;2022-10-16T04:22:44;13.70;99.90
39865;DHT22;25538;48.392;9.976;2022-10-16T04:25:11;13.70;99.90
39865;DHT22;25538;48.392;9.976;2022-10-16T04:27:38;13.70;99.90
39865;DHT22;25538;48.392;9.976;2022-10-16T04:30:04;13.70;99.90
39865;DHT22;25538;48.392;9.976;2022-10-16T04:32:30;13.60;99.90
39865;DHT22;25538;48.392;9.976;2022-10-16T04:34:56;13.60;99.90
39865;DHT22;25538;48.392;9.976;2022-10-16T04:37:26;13.60;99.90
39865;DHT22;25538;48.392;9.976;2022-10-16T04:39:53;13.60;99.90
39865;DHT22;25538;48.392;9.976;2022-10-16T04:42:20;13.60;99.90
39865;DHT22;25538;48.392;9.976;2022-10-16T04:44:46;13.60;99.90
39865;DHT22;25538;48.392;9.976;2022-10-16T04:47:13;13.60;99.90
39865;DHT22;25538;48.392;9.976;2022-10-16T04:49:39;13.60;99.90
39865;DHT22;25538;48.392;9.976;2022-10-16T04:52:05;13.60;99.90
39865;DHT22;25538;48.392;9.976;2022-10-16T04:54:31;13.60;99.90
39865;DHT22;25538;48.392;9.976;2022-10-16T04:56:57;13.60;99.90
39865;DHT22;25538;48.392;9.976;2022-10-16T04:59:23;13.60;99.90
39865;DHT22;25538;48.392;9.976;2022-10-16T05:01:49;13.60;99.90
39865;DHT22;25538;48.392;9.976;2022-10-16T05:04:15;13.60;99.90
39865;DHT22;25538;48.392;9.976;2022-10-16T05:06:41;13.60;99.90
39865;DHT22;25538;48.392;9.976;2022-10-16T05:09:08;13.60;99.90
39865;DHT22;25538;48.392;9.976;2022-10-16T05:11:34;13.60;99.90
39865;DHT22;25538;48.392;9.976;2022-10-16T05:14:01;13.50;99.90
39865;DHT22;25538;48.392;9.976;2022-10-16T05:16:27;13.50;99.90
39865;DHT22;25538;48.392;9.976;2022-10-16T05:18:53;13.50;99.90
39865;DHT22;25538;48.392;9.976;2022-10-16T05:21:20;13.50;99.90
39865;DHT22;25538;48.392;9.976;2022-10-16T05:23:46;13.50;99.90
39865;DHT22;25538;48.392;9.976;2022-10-16T05:26:12;13.50;99.90
39865;DHT22;25538;48.392;9.976;2022-10-16T05:28:37;13.50;99.90
39865;DHT22;25538;48.392;9.976;2022-10-16T05:31:05;13.40;99.90
39865;DHT22;25538;48.392;9.976;2022-10-16T05:33:32;13.40;99.90
39865;DHT22;25538;48.392;9.976;2022-10-16T05:36:06;13.40;99.90
39865;DHT22;25538;48.392;9.976;2022-10-16T05:38:34;13.40;99.90
39865;DHT22;25538;48.392;9.976;2022-10-16T05:41:00;13.40;99.90
39865;DHT22;25538;48.392;9.976;2022-10-16T05:43:28;13.40;99.90
39865;DHT22;25538;48.392;9.976;2022-10-16T05:46:02;13.40;99.90
39865;DHT22;25538;48.392;9.976;2022-10-16T05:48:28;13.40;99.90
39865;DHT22;25538;48.392;9.976;2022-10-16T05:51:03;13.40;99.90
39865;DHT22;25538;48.392;9.976;2022-10-16T05:53:31;13.40;99.90
39865;DHT22;25538;48.392;9.976;2022-10-16T05:55:58;13.50;99.90
39865;DHT22;25538;48.392;9.976;2022-10-16T05:58:25;13.50;99.90
39865;DHT22;25538;48.392;9.976;2022-10-16T06:03:21;13.50;99.90
39865;DHT22;25538;48.392;9.976;2022-10-16T06:05:47;13.50;99.90
39865;DHT22;25538;48.392;9.976;2022-10-16T06:08:13;13.60;99.90
39865;DHT22;25538;48.392;9.976;2022-10-16T06:10:38;13.60;99.90
39865;DHT22;25538;48.392;9.976;2022-10-16T06:13:04;13.60;99.90
39865;DHT22;25538;48.392;9.976;2022-10-16T06:15:30;13.70;99.90
39865;DHT22;25538;48.392;9.976;2022-10-16T06:17:56;13.70;99.90
39865;DHT22;25538;48.392;9.976;2022-10-16T06:20:22;13.80;99.90
39865;DHT22;25538;48.392;9.976;2022-10-16T06:22:48;13.80;99.90
39865;DHT22;25538;48.392;9.976;2022-10-16T06:25:14;13.70;99.90
39865;DHT22;25538;48.392;9.976;2022-10-16T06:27:40;13.70;99.90
39865;DHT22;25538;48.392;9.976;2022-10-16T06:30:07;13.80;99.90
39865;DHT22;25538;48.392;9.976;2022-10-16T06:32:33;13.90;99.90
39865;DHT22;25538;48.392;9.976;2022-10-16T06:34:59;13.90;99.90
39865;DHT22;25538;48.392;9.976;2022-10-16T06:37:25;13.90;99.90
39865;DHT22;25538;48.392;9.976;2022-10-16T06:39:52;14.00;99.90
39865;DHT22;25538;48.392;9.976;2022-10-16T06:42:18;14.10;99.90
39865;DHT22;25538;48.392;9.976;2022-10-16T06:44:44;14.20;99.90
39865;DHT22;25538;48.392;9.976;2022-10-16T06:47:10;14.30;99.90
39865;DHT22;25538;48.392;9.976;2022-10-16T06:49:36;14.50;99.90
39865;DHT22;25538;48.392;9.976;2022-10-16T06:52:02;14.60;99.90
39865;DHT22;25538;48.392;9.976;2022-10-16T06:54:29;14.70;99.90
39865;DHT22;25538;48.392;9.976;2022-10-16T06:56:54;14.70;99.90
39865;DHT22;25538;48.392;9.976;2022-10-16T06:59:21;14.80;99.90
39865;DHT22;25538;48.392;9.976;2022-10-16T07:01:47;14.80;99.90
39865;DHT22;25538;48.392;9.976;2022-10-16T07:04:13;14.80;99.90
39865;DHT22;25538;48.392;9.976;2022-10-16T07:06:39;14.90;99.90
39865;DHT22;25538;48.392;9.976;2022-10-16T07:09:11;14.90;99.90
39865;DHT22;25538;48.392;9.976;2022-10-16T07:11:39;14.90;99.90
39865;DHT22;25538;48.392;9.976;2022-10-16T07:14:09;14.90;99.90
39865;DHT22;25538;48.392;9.976;2022-10-16T07:16:38;14.90;99.90
39865;DHT22;25538;48.392;9.976;2022-10-16T07:19:03;14.80;99.90
39865;DHT22;25538;48.392;9.976;2022-10-16T07:21:32;14.90;99.90
39865;DHT22;25538;48.392;9.976;2022-10-16T07:24:01;14.90;99.90
39865;DHT22;25538;48.392;9.976;2022-10-16T07:26:29;14.90;99.90
39865;DHT22;25538;48.392;9.976;2022-10-16T07:28:56;14.90;99.90
39865;DHT22;25538;48.392;9.976;2022-10-16T07:31:23;14.90;99.90
39865;DHT22;25538;48.392;9.976;2022-10-16T07:33:50;15.00;99.90
39865;DHT22;25538;48.392;9.976;2022-10-16T07:36:17;15.10;99.90
39865;DHT22;25538;48.392;9.976;2022-10-16T07:38:44;15.20;99.90
39865;DHT22;25538;48.392;9.976;2022-10-16T07:41:15;15.30;99.90
39865;DHT22;25538;48.392;9.976;2022-10-16T07:43:49;15.30;99.90
39865;DHT22;25538;48.392;9.976;2022-10-16T07:46:16;15.40;99.90
39865;DHT22;25538;48.392;9.976;2022-10-16T07:48:42;15.40;99.90
39865;DHT22;25538;48.392;9.976;2022-10-16T07:51:11;15.50;99.90
39865;DHT22;25538;48.392;9.976;2022-10-16T07:53:38;15.60;99.90
39865;DHT22;25538;48.392;9.976;2022-10-16T07:56:05;15.70;99.90
39865;DHT22;25538;48.392;9.976;2022-10-16T07:58:32;15.80;99.90
39865;DHT22;25538;48.392;9.976;2022-10-16T08:00:59;15.90;99.90
39865;DHT22;25538;48.392;9.976;2022-10-16T08:03:28;15.90;99.90
39865;DHT22;25538;48.392;9.976;2022-10-16T08:05:54;15.90;99.90
39865;DHT22;25538;48.392;9.976;2022-10-16T08:08:22;15.90;99.90
39865;DHT22;25538;48.392;9.976;2022-10-16T08:10:48;15.90;99.90
39865;DHT22;25538;48.392;9.976;2022-10-16T08:13:13;15.90;99.90
39865;DHT22;25538;48.392;9.976;2022-10-16T08:15:41;15.90;99.90
39865;DHT22;25538;48.392;9.976;2022-10-16T08:18:09;16.00;99.90
39865;DHT22;25538;48.392;9.976;2022-10-16T08:20:35;16.10;99.90
39865;DHT22;25538;48.392;9.976;2022-10-16T08:23:01;16.10;99.90
39865;DHT22;25538;48.392;9.976;2022-10-16T08:25:27;16.10;99.90
39865;DHT22;25538;48.392;9.976;2022-10-16T08:27:53;16.20;99.90
39865;DHT22;25538;48.392;9.976;2022-10-16T08:30:21;16.30;99.90
39865;DHT22;25538;48.392;9.976;2022-10-16T08:32:47;16.30;99.90
39865;DHT22;25538;48.392;9.976;2022-10-16T08:35:13;16.40;99.90
39865;DHT22;25538;48.392;9.976;2022-10-16T08:37:41;16.40;99.90
39865;DHT22;25538;48.392;9.976;2022-10-16T08:40:21;16.40;99.90
39865;DHT22;25538;48.392;9.976;2022-10-16T08:45:49;16.40;99.90
39865;DHT22;25538;48.392;9.976;2022-10-16T08:51:04;16.60;99.90
39865;DHT22;25538;48.392;9.976;2022-10-16T08:53:35;16.60;99.90
39865;DHT22;25538;48.392;9.976;2022-10-16T08:56:03;16.50;99.90
39865;DHT22;25538;48.392;9.976;2022-10-16T08:58:30;16.70;99.90
39865;DHT22;25538;48.392;9.976;2022-10-16T09:01:03;16.80;99.90
39865;DHT22;25538;48.392;9.976;2022-10-16T09:07:09;16.80;99.90
39865;DHT22;25538;48.392;9.976;2022-10-16T09:12:18;16.90;99.90
39865;DHT22;25538;48.392;9.976;2022-10-16T09:25:46;17.50;99.90
39865;DHT22;25538;48.392;9.976;2022-10-16T09:28:13;17.60;99.90
39865;DHT22;25538;48.392;9.976;2022-10-16T09:30:39;17.70;99.90
39865;DHT22;25538;48.392;9.976;2022-10-16T09:33:06;17.50;99.90
39865;DHT22;25538;48.392;9.976;2022-10-16T09:35:49;17.50;99.90
39865;DHT22;25538;48.392;9.976;2022-10-16T09:38:33;17.60;99.90
39865;DHT22;25538;48.392;9.976;2022-10-16T09:41:01;17.90;99.90
39865;DHT22;25538;48.392;9.976;2022-10-16T09:43:48;18.10;99.90
39865;DHT22;25538;48.392;9.976;2022-10-16T09:46:28;18.50;99.90
39865;DHT22;25538;48.392;9.976;2022-10-16T09:48:57;18.80;99.90
39865;DHT22;25538;48.392;9.976;2022-10-16T09:51:30;19.20;99.90
39865;DHT22;25538;48.392;9.976;2022-10-16T09:54:11;19.40;99.90
39865;DHT22;25538;48.392;9.976;2022-10-16T09:56:38;19.60;99.90
39865;DHT22;25538;48.392;9.976;2022-10-16T09:59:18;19.80;99.90
39865;DHT22;25538;48.392;9.976;2022-10-16T10:04:15;20.90;99.90
39865;DHT22;25538;48.392;9.976;2022-10-16T10:06:49;21.10;99.90
39865;DHT22;25538;48.392;9.976;2022-10-16T10:11:54;20.70;99.90
39865;DHT22;25538;48.392;9.976;2022-10-16T10:14:22;20.50;99.90
39865;DHT22;25538;48.392;9.976;2022-10-16T10:16:49;20.50;99.90
39865;DHT22;25538;48.392;9.976;2022-10-16T10:19:17;20.60;99.90
39865;DHT22;25538;48.392;9.976;2022-10-16T10:21:43;20.90;99.90
39865;DHT22;25538;48.392;9.976;2022-10-16T10:24:14;21.10;99.90
39865;DHT22;25538;48.392;9.976;2022-10-16T10:27:02;21.40;99.90
39865;DHT22;25538;48.392;9.976;2022-10-16T10:32:22;21.40;99.90
39865;DHT22;25538;48.392;9.976;2022-10-16T10:42:59;20.90;99.90
39865;DHT22;25538;48.392;9.976;2022-10-16T10:45:38;20.90;99.90
39865;DHT22;25538;48.392;9.976;2022-10-16T10:48:19;21.00;99.90
39865;DHT22;25538;48.392;9.976;2022-10-16T10:51:01;21.10;99.90
39865;DHT22;25538;48.392;9.976;2022-10-16T10:53:52;21.10;99.90
39865;DHT22;25538;48.392;9.976;2022-10-16T11:02:11;20.80;99.90
39865;DHT22;25538;48.392;9.976;2022-10-16T11:07:20;20.50;99.90
39865;DHT22;25538;48.392;9.976;2022-10-16T11:09:53;20.50;99.90
39865;DHT22;25538;48.392;9.976;2022-10-16T11:12:33;20.50;99.90
39865;DHT22;25538;48.392;9.976;2022-10-16T11:20:21;21.00;99.90
39865;DHT22;25538;48.392;9.976;2022-10-16T11:23:16;21.10;99.90
39865;DHT22;25538;48.392;9.976;2022-10-16T11:25:45;21.50;99.90
39865;DHT22;25538;48.392;9.976;2022-10-16T11:28:19;21.80;99.90
39865;DHT22;25538;48.392;9.976;2022-10-16T11:30:51;21.90;99.90
39865;DHT22;25538;48.392;9.976;2022-10-16T11:36:00;22.10;99.90
39865;DHT22;25538;48.392;9.976;2022-10-16T11:38:49;22.50;99.90
39865;DHT22;25538;48.392;9.976;2022-10-16T11:44:14;23.60;99.90
39865;DHT22;25538;48.392;9.976;2022-10-16T11:46:48;24.80;99.90
39865;DHT22;25538;48.392;9.976;2022-10-16T11:49:18;26.80;99.90
39865;DHT22;25538;48.392;9.976;2022-10-16T11:51:58;29.20;99.90
39865;DHT22;25538;48.392;9.976;2022-10-16T11:57:23;31.10;99.90
39865;DHT22;25538;48.392;9.976;2022-10-16T11:59:58;31.00;99.30
39865;DHT22;25538;48.392;9.976;2022-10-16T12:05:12;31.20;93.20
39865;DHT22;25538;48.392;9.976;2022-10-16T12:08:13;31.60;91.90
39865;DHT22;25538;48.392;9.976;2022-10-16T12:10:42;31.60;90.80
39865;DHT22;25538;48.392;9.976;2022-10-16T12:16:20;31.50;87.40
39865;DHT22;25538;48.392;9.976;2022-10-16T12:18:47;32.20;87.20
39865;DHT22;25538;48.392;9.976;2022-10-16T12:21:16;32.70;85.40
39865;DHT22;25538;48.392;9.976;2022-10-16T12:23:56;33.40;79.80
39865;DHT22;25538;48.392;9.976;2022-10-16T12:26:31;34.10;79.60
39865;DHT22;25538;48.392;9.976;2022-10-16T12:29:27;34.20;76.90
39865;DHT22;25538;48.392;9.976;2022-10-16T12:31:54;33.80;76.00
39865;DHT22;25538;48.392;9.976;2022-10-16T12:34:28;34.20;70.50
39865;DHT22;25538;48.392;9.976;2022-10-16T12:36:55;34.20;73.70
39865;DHT22;25538;48.392;9.976;2022-10-16T12:39:23;35.50;66.30
39865;DHT22;25538;48.392;9.976;2022-10-16T12:42:05;35.50;64.00
39865;DHT22;25538;48.392;9.976;2022-10-16T12:44:36;35.40;61.20
39865;DHT22;25538;48.392;9.976;2022-10-16T12:47:02;35.00;61.40
39865;DHT22;25538;48.392;9.976;2022-10-16T12:51:54;34.00;63.70
39865;DHT22;25538;48.392;9.976;2022-10-16T12:54:34;32.90;63.90
39865;DHT22;25538;48.392;9.976;2022-10-16T13:10:18;34.60;60.90
39865;DHT22;25538;48.392;9.976;2022-10-16T13:18:09;34.40;58.70
39865;DHT22;25538;48.392;9.976;2022-10-16T13:21:02;34.20;59.20
39865;DHT22;25538;48.392;9.976;2022-10-16T13:29:10;35.40;57.80
39865;DHT22;25538;48.392;9.976;2022-10-16T13:31:38;35.50;55.80
39865;DHT22;25538;48.392;9.976;2022-10-16T13:34:05;35.20;57.10
39865;DHT22;25538;48.392;9.976;2022-10-16T13:36:46;35.00;55.50
39865;DHT22;25538;48.392;9.976;2022-10-16T13:39:28;35.00;55.20
39865;DHT22;25538;48.392;9.976;2022-10-16T13:44:37;34.60;56.00
39865;DHT22;25538;48.392;9.976;2022-10-16T13:47:05;34.40;55.10
39865;DHT22;25538;48.392;9.976;2022-10-16T13:49:31;34.30;55.70
39865;DHT22;25538;48.392;9.976;2022-10-16T13:51:58;34.20;56.30
39865;DHT22;25538;48.392;9.976;2022-10-16T13:54:26;34.00;55.20
39865;DHT22;25538;48.392;9.976;2022-10-16T13:56:54;33.40;60.30
39865;DHT22;25538;48.392;9.976;2022-10-16T13:59:33;34.40;55.90
39865;DHT22;25538;48.392;9.976;2022-10-16T14:02:17;34.60;56.70
39865;DHT22;25538;48.392;9.976;2022-10-16T14:04:46;34.20;54.30
39865;DHT22;25538;48.392;9.976;2022-10-16T14:07:24;32.50;56.30
39865;DHT22;25538;48.392;9.976;2022-10-16T14:09:53;31.30;57.60
39865;DHT22;25538;48.392;9.976;2022-10-16T14:12:19;30.50;58.70
39865;DHT22;25538;48.392;9.976;2022-10-16T14:14:48;29.90;59.90
39865;DHT22;25538;48.392;9.976;2022-10-16T14:17:17;29.80;62.90
39865;DHT22;25538;48.392;9.976;2022-10-16T14:19:48;30.20;61.30
39865;DHT22;25538;48.392;9.976;2022-10-16T14:22:34;30.50;60.20
39865;DHT22;25538;48.392;9.976;2022-10-16T14:25:02;31.00;59.20
39865;DHT22;25538;48.392;9.976;2022-10-16T14:27:36;32.20;57.70
39865;DHT22;25538;48.392;9.976;2022-10-16T14:30:16;33.50;55.00
39865;DHT22;25538;48.392;9.976;2022-10-16T14:32:54;34.00;54.50
39865;DHT22;25538;48.392;9.976;2022-10-16T14:35:33;34.40;53.70
39865;DHT22;25538;48.392;9.976;2022-10-16T14:38:01;34.80;51.30
39865;DHT22;25538;48.392;9.976;2022-10-16T14:40:33;34.40;51.60
39865;DHT22;25538;48.392;9.976;2022-10-16T14:43:01;33.70;53.10
39865;DHT22;25538;48.392;9.976;2022-10-16T14:45:30;33.30;52.40
39865;DHT22;25538;48.392;9.976;2022-10-16T14:47:58;32.80;53.80
39865;DHT22;25538;48.392;9.976;2022-10-16T14:50:26;32.00;56.20
39865;DHT22;25538;48.392;9.976;2022-10-16T14:52:52;31.80;55.90
39865;DHT22;25538;48.392;9.976;2022-10-16T14:55:18;31.20;57.40
39865;DHT22;25538;48.392;9.976;2022-10-16T14:57:45;31.30;56.90
39865;DHT22;25538;48.392;9.976;2022-10-16T15:00:22;31.80;55.70
39865;DHT22;25538;48.392;9.976;2022-10-16T15:02:50;32.30;57.10
39865;DHT22;25538;48.392;9.976;2022-10-16T15:05:21;32.70;54.40
39865;DHT22;25538;48.392;9.976;2022-10-16T15:07:50;32.10;55.50
39865;DHT22;25538;48.392;9.976;2022-10-16T15:10:17;31.10;57.00
39865;DHT22;25538;48.392;9.976;2022-10-16T15:12:43;29.90;57.20
39865;DHT22;25538;48.392;9.976;2022-10-16T15:15:32;28.70;59.80
39865;DHT22;25538;48.392;9.976;2022-10-16T15:17:58;27.90;61.90
39865;DHT22;25538;48.392;9.976;2022-10-16T15:20:28;27.40;64.70
39865;DHT22;25538;48.392;9.976;2022-10-16T15:22:56;27.00;67.20
39865;DHT22;25538;48.392;9.976;2022-10-16T15:25:51;26.70;67.50
39865;DHT22;25538;48.392;9.976;2022-10-16T15:28:18;26.40;70.10
39865;DHT22;25538;48.392;9.976;2022-10-16T15:30:45;26.30;67.70
39865;DHT22;25538;48.392;9.976;2022-10-16T15:33:16;26.10;70.80
39865;DHT22;25538;48.392;9.976;2022-10-16T15:35:45;26.00;72.00
39865;DHT22;25538;48.392;9.976;2022-10-16T15:38:12;26.00;70.30
39865;DHT22;25538;48.392;9.976;2022-10-16T15:40:39;26.20;71.80
39865;DHT22;25538;48.392;9.976;2022-10-16T15:43:05;26.20;70.70
39865;DHT22;25538;48.392;9.976;2022-10-16T15:45:31;26.10;73.30
39865;DHT22;25538;48.392;9.976;2022-10-16T15:47:57;26.00;72.20
39865;DHT22;25538;48.392;9.976;2022-10-16T15:50:23;25.80;73.10
39865;DHT22;25538;48.392;9.976;2022-10-16T15:52:50;25.60;73.90
39865;DHT22;25538;48.392;9.976;2022-10-16T15:55:16;25.30;77.90
39865;DHT22;25538;48.392;9.976;2022-10-16T15:57:45;25.10;79.50
39865;DHT22;25538;48.392;9.976;2022-10-16T16:00:14;24.80;81.00
39865;DHT22;25538;48.392;9.976;2022-10-16T16:02:41;24.60;82.70
39865;DHT22;25538;48.392;9.976;2022-10-16T16:05:08;24.40;83.30
39865;DHT22;25538;48.392;9.976;2022-10-16T16:07:35;24.30;84.30
39865;DHT22;25538;48.392;9.976;2022-10-16T16:10:03;24.20;82.20
39865;DHT22;25538;48.392;9.976;2022-10-16T16:12:29;23.90;83.60
39865;DHT22;25538;48.392;9.976;2022-10-16T16:14:55;23.70;86.40
39865;DHT22;25538;48.392;9.976;2022-10-16T16:17:21;23.40;89.50
39865;DHT22;25538;48.392;9.976;2022-10-16T16:19:47;23.20;90.30
39865;DHT22;25538;48.392;9.976;2022-10-16T16:22:13;22.90;90.20
39865;DHT22;25538;48.392;9.976;2022-10-16T16:24:39;22.70;90.90
39865;DHT22;25538;48.392;9.976;2022-10-16T16:27:05;22.40;91.00
39865;DHT22;25538;48.392;9.976;2022-10-16T16:29:31;22.20;92.20
39865;DHT22;25538;48.392;9.976;2022-10-16T16:31:57;22.00;92.60
39865;DHT22;25538;48.392;9.976;2022-10-16T16:34:28;21.70;93.40
39865;DHT22;25538;48.392;9.976;2022-10-16T16:36:55;21.60;93.30
39865;DHT22;25538;48.392;9.976;2022-10-16T16:39:21;21.50;93.90
39865;DHT22;25538;48.392;9.976;2022-10-16T16:41:47;21.30;94.70
39865;DHT22;25538;48.392;9.976;2022-10-16T16:44:14;21.20;95.70
39865;DHT22;25538;48.392;9.976;2022-10-16T16:46:40;21.00;96.60
39865;DHT22;25538;48.392;9.976;2022-10-16T16:49:10;20.90;98.10
39865;DHT22;25538;48.392;9.976;2022-10-16T16:51:37;20.80;99.70
39865;DHT22;25538;48.392;9.976;2022-10-16T16:54:04;20.70;99.90
39865;DHT22;25538;48.392;9.976;2022-10-16T16:56:30;20.60;99.90
39865;DHT22;25538;48.392;9.976;2022-10-16T16:58:56;20.50;99.90
39865;DHT22;25538;48.392;9.976;2022-10-16T17:01:24;20.40;99.90
39865;DHT22;25538;48.392;9.976;2022-10-16T17:03:52;20.40;99.90
39865;DHT22;25538;48.392;9.976;2022-10-16T17:06:21;20.30;99.90
39865;DHT22;25538;48.392;9.976;2022-10-16T17:08:48;20.20;99.90
39865;DHT22;25538;48.392;9.976;2022-10-16T17:11:22;20.10;99.90
39865;DHT22;25538;48.392;9.976;2022-10-16T17:13:49;20.00;99.90
39865;DHT22;25538;48.392;9.976;2022-10-16T17:16:16;19.90;99.90
39865;DHT22;25538;48.392;9.976;2022-10-16T17:18:42;19.70;99.90
39865;DHT22;25538;48.392;9.976;2022-10-16T17:21:09;19.70;99.90
39865;DHT22;25538;48.392;9.976;2022-10-16T17:23:36;19.60;99.90
39865;DHT22;25538;48.392;9.976;2022-10-16T17:26:08;19.50;99.90
39865;DHT22;25538;48.392;9.976;2022-10-16T17:28:34;19.50;99.90
39865;DHT22;25538;48.392;9.976;2022-10-16T17:31:11;19.40;99.90
39865;DHT22;25538;48.392;9.976;2022-10-16T17:33:38;19.30;99.90